Terminal Aerodrome Forecast
Issued by NWS

Home | Current Version | Previous Version | Text Only | Print | Product List | Glossary Off
Versions: 1 2 3 4 5 6 7 8 9 10 11 12 13 14 15 16

000
FTUS43 KMPX 151100 RRA
TAFAXN
TAF
KAXN 151146Z 1512/1612 35008KT 6SM BR VCSH OVC003
     FM151600 36017G27KT 1 1/2SM -SN BR OVC005
      TEMPO 1516/1519 -PLSN
     FM152200 35022G32KT 5SM -SN BR OVC009
     FM160400 35019G26KT P6SM OVC015=

USA.gov is the U.S. government's official web portal to all federal, state and local government web resources and services.